Time;durP1;ratioP1;P1;durP2;ratioP2;P2;SDS_P1;SDS_P2;PMS_P1;PMS_P2;Temp;Humidity;BMP_temperature;BMP_pressure;BME280_temperature;BME280_humidity;BME280_pressure;Samples;Min_cycle;Max_cycle;Signal;HPM_P1;HPM_P2
2022/09/22 00:01:36;;;;;;;6.80;3.60;;;;;;;7.14;100.00;154323.94;4925599;29;20046;-81
2022/09/22 00:04:05;;;;;;;8.55;3.65;;;;;;;7.06;100.00;154303.47;4918666;29;20090;-80
2022/09/22 00:06:52;;;;;;;8.63;3.78;;;;;;;7.09;100.00;154312.44;4918760;28;20054;-80
2022/09/22 00:09:19;;;;;;;11.65;3.75;;;;;;;7.05;100.00;154302.19;4951714;28;20032;-80
2022/09/22 00:11:48;;;;;;;6.70;3.78;;;;;;;6.99;100.00;154286.84;4935761;28;20070;-81
2022/09/22 00:14:25;;;;;;;11.13;4.32;;;;;;;6.96;100.00;154279.16;4957050;28;20035;-83
2022/09/22 00:16:57;;;;;;;11.38;4.00;;;;;;;6.93;100.00;154272.78;4953263;28;20032;-81
2022/09/22 00:19:26;;;;;;;8.73;3.92;;;;;;;6.89;100.00;154261.22;4955197;28;20038;-81
2022/09/22 00:21:52;;;;;;;9.95;3.92;;;;;;;6.82;100.00;154245.88;4944897;29;20035;-82
2022/09/22 00:24:21;;;;;;;9.05;3.80;;;;;;;6.82;100.00;154244.63;4943599;28;20105;-80
2022/09/22 00:26:47;;;;;;;10.32;3.83;;;;;;;6.83;100.00;154247.16;4948341;29;20486;-84
2022/09/22 00:29:14;;;;;;;8.60;4.15;;;;;;;6.77;100.00;154233.06;4943759;28;20045;-81
2022/09/22 00:31:41;;;;;;;8.93;4.00;;;;;;;6.76;100.00;154229.22;4939934;29;20035;-81
2022/09/22 00:34:08;;;;;;;9.23;3.63;;;;;;;6.74;100.00;154225.44;4942275;29;20090;-80
2022/09/22 00:36:33;;;;;;;8.63;3.90;;;;;;;6.71;100.00;154216.47;4941254;28;20121;-80
2022/09/22 00:38:59;;;;;;;7.93;3.50;;;;;;;6.72;100.00;154220.28;4945432;29;20485;-82
2022/09/22 00:41:32;;;;;;;8.73;3.88;;;;;;;6.62;100.00;154194.69;4953511;28;20050;-82
2022/09/22 00:44:17;;;;;;;6.53;4.07;;;;;;;6.66;100.00;154204.91;4946243;28;20098;-84
2022/09/22 00:46:46;;;;;;;6.90;3.92;;;;;;;6.60;100.00;154190.84;4935866;29;20738;-81
2022/09/22 00:49:13;;;;;;;5.68;4.05;;;;;;;6.57;100.00;154183.19;4957425;28;20039;-80
2022/09/22 00:51:42;;;;;;;5.28;3.80;;;;;;;6.58;100.00;154185.72;4966807;28;20034;-80
2022/09/22 00:54:12;;;;;;;7.72;3.97;;;;;;;6.56;100.00;154180.63;4955541;28;20061;-81
2022/09/22 00:56:54;;;;;;;15.43;3.92;;;;;;;6.49;100.00;154161.44;4961509;28;20102;-81
2022/09/22 00:59:23;;;;;;;8.75;3.70;;;;;;;6.47;100.00;154157.59;4947185;28;20053;-81
2022/09/22 01:01:50;;;;;;;5.22;3.30;;;;;;;6.45;100.00;154151.19;4929577;28;20039;-80
2022/09/22 01:04:16;;;;;;;8.52;4.10;;;;;;;6.36;100.00;154130.69;4935698;28;20031;-80
2022/09/22 01:06:42;;;;;;;4.47;3.58;;;;;;;6.27;100.00;154107.66;4933046;29;20043;-79
2022/09/22 01:09:08;;;;;;;6.25;3.40;;;;;;;6.23;100.00;154097.44;4936811;29;20047;-81
2022/09/22 01:11:37;;;;;;;6.45;3.50;;;;;;;6.14;100.00;154074.41;4926283;28;20039;-80
2022/09/22 01:14:17;;;;;;;6.78;3.70;;;;;;;6.19;100.00;154087.22;4941951;29;20042;-81
2022/09/22 01:16:55;;;;;;;7.47;3.38;;;;;;;6.22;100.00;154096.19;4946818;28;20062;-81
2022/09/22 01:19:32;;;;;;;6.15;3.60;;;;;;;6.14;100.00;154074.41;4938068;28;20047;-81
2022/09/22 01:22:16;;;;;;;9.13;3.83;;;;;;;6.12;100.00;154069.31;4937262;28;20131;-81
2022/09/22 01:24:48;;;;;;;8.90;3.85;;;;;;;6.10;100.00;154065.44;4951145;28;20065;-80
2022/09/22 01:27:38;;;;;;;6.57;3.80;;;;;;;6.10;100.00;154065.44;4926914;28;20054;-80
2022/09/22 01:30:25;;;;;;;7.10;3.80;;;;;;;6.09;100.00;154061.66;4941774;29;20289;-81
2022/09/22 01:33:21;;;;;;;6.75;4.22;;;;;;;6.10;100.00;154064.19;4954222;28;20050;-80
2022/09/22 01:36:12;;;;;;;6.25;3.80;;;;;;;6.13;100.00;154073.16;4949723;29;20039;-81
2022/09/22 01:39:02;;;;;;;7.47;4.05;;;;;;;6.11;100.00;154068.03;4941950;29;20170;-81
2022/09/22 01:41:57;;;;;;;7.18;4.20;;;;;;;6.08;100.00;154060.34;4956126;28;20040;-80
2022/09/22 01:44:38;;;;;;;6.38;4.07;;;;;;;5.98;100.00;154036.03;4942569;28;20043;-80
2022/09/22 01:47:09;;;;;;;4.97;3.40;;;;;;;6.14;100.00;154075.72;4928161;29;20047;-79
2022/09/22 01:49:41;;;;;;;9.13;4.47;;;;;;;6.14;100.00;154074.41;4939555;29;20051;-80
2022/09/22 01:52:13;;;;;;;5.60;3.67;;;;;;;6.15;100.00;154078.25;4951953;28;20062;-81
2022/09/22 01:54:44;;;;;;;6.15;4.10;;;;;;;6.17;100.00;154082.09;4952507;28;20039;-80
2022/09/22 01:57:20;;;;;;;5.15;3.45;;;;;;;6.17;100.00;154082.09;4947523;28;20031;-81
2022/09/22 01:59:53;;;;;;;6.97;3.50;;;;;;;6.16;100.00;154079.53;4947734;28;20038;-80
2022/09/22 02:02:32;;;;;;;5.93;3.90;;;;;;;6.15;100.00;154078.25;4925985;28;20565;-82
2022/09/22 02:05:03;;;;;;;7.05;3.80;;;;;;;6.08;100.00;154059.06;4921825;29;20046;-81
2022/09/22 02:07:38;;;;;;;6.38;3.85;;;;;;;6.01;100.00;154043.75;4955924;28;20043;-82
2022/09/22 02:10:13;;;;;;;8.70;4.10;;;;;;;5.91;100.00;154016.81;4934183;29;20132;-80
2022/09/22 02:12:39;;;;;;;6.20;3.83;;;;;;;5.94;100.00;154025.78;4951995;28;20744;-83
2022/09/22 02:15:58;;;;;;;4.93;3.50;;;;;;;5.97;100.00;154032.19;4947776;28;20043;-80
2022/09/22 02:18:00;;;;;;;7.13;3.67;;;;;;;5.96;100.00;154030.94;4942476;29;20039;-81
2022/09/22 02:20:26;;;;;;;4.75;3.67;;;;;;;5.96;100.00;154029.66;4940164;28;20046;-82
2022/09/22 02:22:53;;;;;;;6.57;3.67;;;;;;;5.91;100.00;154016.81;4947897;28;20043;-80
2022/09/22 02:25:21;;;;;;;6.97;3.75;;;;;;;5.84;100.00;154000.22;4943450;28;20098;-80
2022/09/22 02:27:48;;;;;;;7.60;3.90;;;;;;;5.77;100.00;153983.56;4944823;29;20098;-80
2022/09/22 02:30:13;;;;;;;7.55;3.80;;;;;;;5.77;100.00;153982.31;4957362;28;20050;-81
2022/09/22 02:32:45;;;;;;;8.20;3.80;;;;;;;5.71;100.00;153966.91;4944970;29;20035;-81
2022/09/22 02:35:11;;;;;;;4.97;3.47;;;;;;;5.63;100.00;153949.06;4928256;28;20043;-80
2022/09/22 02:37:59;;;;;;;8.52;4.43;;;;;;;5.57;100.00;153932.41;4939632;28;20038;-80
2022/09/22 02:40:30;;;;;;;3.85;3.30;;;;;;;5.60;100.00;153941.38;4942896;28;20039;-81
2022/09/22 02:43:24;;;;;;;6.82;3.92;;;;;;;5.56;100.00;153931.16;4928340;29;20031;-81
2022/09/22 02:45:52;;;;;;;12.05;4.22;;;;;;;5.53;100.00;153923.47;4941521;29;20047;-80
2022/09/22 02:48:21;;;;;;;4.88;3.80;;;;;;;5.51;100.00;153917.09;4945475;28;20516;-80
2022/09/22 02:50:47;;;;;;;6.47;4.15;;;;;;;5.41;100.00;153894.06;4934064;28;20042;-81
2022/09/22 02:53:16;;;;;;;7.75;4.18;;;;;;;5.45;100.00;153904.28;4963835;28;20062;-81
2022/09/22 02:55:43;;;;;;;5.07;3.80;;;;;;;5.36;100.00;153880.00;4942277;29;20039;-80
2022/09/22 02:58:09;;;;;;;8.00;4.00;;;;;;;5.41;100.00;153892.78;4940369;29;20043;-81
2022/09/22 03:00:34;;;;;;;10.93;4.78;;;;;;;5.39;100.00;153887.69;4968780;28;20031;-80
2022/09/22 03:03:00;;;;;;;9.55;3.80;;;;;;;5.42;100.00;153896.59;4924841;29;20027;-79
2022/09/22 03:05:26;;;;;;;6.45;3.30;;;;;;;5.43;100.00;153899.16;4925609;28;20038;-80
2022/09/22 03:07:51;;;;;;;9.95;3.65;;;;;;;5.38;100.00;153885.09;4925559;29;20428;-80
2022/09/22 03:10:17;;;;;;;8.85;3.50;;;;;;;5.35;100.00;153877.44;4940842;28;20468;-80
2022/09/22 03:12:43;;;;;;;6.30;3.65;;;;;;;5.35;100.00;153877.44;4932145;28;20650;-81
2022/09/22 03:15:10;;;;;;;6.93;4.15;;;;;;;5.35;100.00;153877.44;4937862;29;20039;-80
2022/09/22 03:17:36;;;;;;;6.15;3.90;;;;;;;5.32;100.00;153869.78;4925138;28;20049;-80
2022/09/22 03:20:04;;;;;;;6.38;3.65;;;;;;;5.30;100.00;153864.66;4925864;29;20107;-82
2022/09/22 03:22:29;;;;;;;9.13;3.85;;;;;;;5.22;100.00;153845.50;4949899;28;20027;-81
2022/09/22 03:24:55;;;;;;;6.15;3.60;;;;;;;5.23;100.00;153848.03;4940213;29;20142;-80
2022/09/22 03:27:21;;;;;;;3.92;3.20;;;;;;;5.28;100.00;153860.81;4938797;28;20043;-82
2022/09/22 03:29:46;;;;;;;7.43;3.95;;;;;;;5.29;100.00;153862.09;4920564;29;20039;-80
2022/09/22 03:32:12;;;;;;;4.00;3.22;;;;;;;5.26;100.00;153856.97;4941832;28;20035;-81
2022/09/22 03:34:37;;;;;;;6.65;3.70;;;;;;;5.41;100.00;153894.06;4921024;29;20078;-81
2022/09/22 03:37:03;;;;;;;5.90;4.03;;;;;;;5.53;100.00;153922.19;4933982;29;20039;-80
2022/09/22 03:39:28;;;;;;;7.50;3.60;;;;;;;5.54;100.00;153924.72;4960311;28;20453;-81
2022/09/22 03:41:54;;;;;;;7.85;3.83;;;;;;;5.54;100.00;153924.72;4943551;29;20032;-81
2022/09/22 03:44:19;;;;;;;8.50;3.63;;;;;;;5.48;100.00;153910.66;4945626;28;20081;-80
2022/09/22 03:46:45;;;;;;;7.68;3.67;;;;;;;5.41;100.00;153892.78;4932111;29;20125;-80
2022/09/22 03:49:11;;;;;;;6.38;3.20;;;;;;;5.35;100.00;153878.75;4947558;29;20043;-81
2022/09/22 03:51:37;;;;;;;4.35;3.08;;;;;;;5.29;100.00;153863.34;4948214;28;20103;-81
2022/09/22 03:54:03;;;;;;;7.88;3.33;;;;;;;5.24;100.00;153850.59;4953104;29;20039;-81
2022/09/22 03:56:28;;;;;;;7.05;3.42;;;;;;;5.23;100.00;153849.28;4957088;28;20049;-80
2022/09/22 03:58:54;;;;;;;6.90;3.08;;;;;;;5.24;100.00;153850.59;4952022;29;20035;-82
2022/09/22 04:01:20;;;;;;;5.15;3.22;;;;;;;5.17;100.00;153832.69;4950460;28;20045;-81
2022/09/22 04:03:45;;;;;;;8.95;3.50;;;;;;;5.09;100.00;153812.28;4961595;28;20485;-81
2022/09/22 04:06:11;;;;;;;3.17;2.85;;;;;;;5.08;100.00;153810.97;4949354;28;20043;-81
2022/09/22 04:08:37;;;;;;;6.50;3.30;;;;;;;5.06;100.00;153805.84;4947967;28;20027;-81
2022/09/22 04:11:04;;;;;;;7.53;3.83;;;;;;;5.03;100.00;153799.47;4953494;28;20104;-82
2022/09/22 04:13:29;;;;;;;6.72;3.42;;;;;;;4.94;100.00;153775.19;4966893;28;20028;-81
2022/09/22 04:15:55;;;;;;;6.50;4.22;;;;;;;4.94;100.00;153775.19;4960146;28;20039;-81
2022/09/22 04:18:21;;;;;;;13.95;4.18;;;;;;;4.82;100.00;153747.06;4949136;28;20050;-80
2022/09/22 04:20:47;;;;;;;10.48;4.60;;;;;;;4.82;100.00;153745.75;4960299;28;20031;-80
2022/09/22 04:23:14;;;;;;;6.70;4.60;;;;;;;4.79;100.00;153738.13;4942820;28;20505;-80
2022/09/22 04:25:40;;;;;;;7.60;4.38;;;;;;;4.73;100.00;153722.75;4940715;29;20717;-80
2022/09/22 04:28:06;;;;;;;9.82;4.95;;;;;;;4.80;100.00;153741.97;4944903;29;20079;-81
2022/09/22 04:30:33;;;;;;;7.75;4.88;;;;;;;4.75;100.00;153727.91;4941822;28;20416;-80
2022/09/22 04:32:59;;;;;;;6.53;4.38;;;;;;;4.81;100.00;153743.25;4957367;28;20039;-81
2022/09/22 04:35:27;;;;;;;5.65;4.50;;;;;;;4.72;100.00;153720.22;4925823;28;20298;-81
2022/09/22 04:37:54;;;;;;;9.45;4.72;;;;;;;4.78;100.00;153735.53;4929546;28;20047;-82
2022/09/22 04:40:21;;;;;;;6.63;4.82;;;;;;;4.72;100.00;153721.50;4949213;28;20070;-81
2022/09/22 04:42:47;;;;;;;9.05;4.40;;;;;;;4.71;100.00;153717.66;4932375;28;20073;-80
2022/09/22 04:45:15;;;;;;;5.35;4.25;;;;;;;4.78;100.00;153735.53;4928795;28;20043;-79
2022/09/22 04:47:45;;;;;;;8.52;3.97;;;;;;;4.71;100.00;153718.97;4941610;28;20397;-81
2022/09/22 04:50:11;;;;;;;12.95;4.78;;;;;;;4.66;100.00;153707.44;4954426;28;20054;-80
2022/09/22 04:52:37;;;;;;;6.22;4.50;;;;;;;4.65;100.00;153703.59;4959833;28;20031;-80
2022/09/22 04:55:03;;;;;;;5.20;4.40;;;;;;;4.61;100.00;153693.38;4958439;28;20034;-80
2022/09/22 04:57:28;;;;;;;5.80;4.57;;;;;;;4.62;100.00;153695.97;4954264;28;20560;-84
2022/09/22 04:59:54;;;;;;;6.28;4.63;;;;;;;4.56;100.00;153680.59;4930112;29;20062;-81
2022/09/22 05:02:19;;;;;;;10.10;4.32;;;;;;;4.59;100.00;153689.53;4945494;28;20062;-80
2022/09/22 05:04:45;;;;;;;6.35;4.97;;;;;;;4.59;100.00;153688.28;4931009;29;20034;-81
2022/09/22 05:07:10;;;;;;;5.45;4.78;;;;;;;4.55;100.00;153678.06;4926861;28;20062;-81
2022/09/22 05:09:36;;;;;;;6.72;4.80;;;;;;;4.60;100.00;153690.84;4942312;29;20225;-80
2022/09/22 05:12:01;;;;;;;5.15;4.65;;;;;;;4.59;100.00;153689.53;4941180;28;20039;-80
2022/09/22 05:14:28;;;;;;;9.85;5.00;;;;;;;4.57;100.00;153684.44;4941716;28;20737;-81
2022/09/22 05:16:54;;;;;;;6.15;4.80;;;;;;;4.55;100.00;153679.31;4941684;29;20039;-80
2022/09/22 05:19:20;;;;;;;8.88;5.65;;;;;;;4.53;100.00;153674.22;4956218;28;20046;-81
2022/09/22 05:21:45;;;;;;;9.98;5.18;;;;;;;4.51;100.00;153667.84;4944574;29;20090;-81
2022/09/22 05:24:11;;;;;;;8.77;5.88;;;;;;;4.48;100.00;153661.44;4957713;28;20427;-80
2022/09/22 05:26:36;;;;;;;12.48;5.78;;;;;;;4.50;100.00;153666.53;4923309;29;20512;-79
2022/09/22 05:29:03;;;;;;;10.40;4.88;;;;;;;4.53;100.00;153674.22;4955962;28;20035;-80
2022/09/22 05:31:28;;;;;;;7.97;5.07;;;;;;;4.50;100.00;153666.53;4936567;28;20040;-80
2022/09/22 05:33:54;;;;;;;6.82;5.38;;;;;;;4.47;100.00;153658.91;4942163;29;20047;-81
2022/09/22 05:36:20;;;;;;;10.27;5.68;;;;;;;4.55;100.00;153678.06;4925417;28;20126;-79
2022/09/22 05:38:45;;;;;;;8.30;5.90;;;;;;;4.61;100.00;153694.63;4940497;29;20047;-80
2022/09/22 05:41:11;;;;;;;12.25;6.03;;;;;;;4.66;100.00;153706.16;4955642;28;20113;-81
2022/09/22 05:43:36;;;;;;;15.40;6.07;;;;;;;4.68;100.00;153712.53;4963618;28;20059;-80
2022/09/22 05:46:02;;;;;;;11.52;5.90;;;;;;;4.77;100.00;153734.28;4962764;28;20106;-80
2022/09/22 05:48:27;;;;;;;10.50;5.25;;;;;;;4.85;100.00;153754.72;4955748;28;20038;-79
2022/09/22 05:50:53;;;;;;;9.77;4.72;;;;;;;4.95;100.00;153779.00;4929394;28;20110;-79
2022/09/22 05:53:19;;;;;;;10.13;4.57;;;;;;;5.01;100.00;153794.38;4948880;28;20505;-79
2022/09/22 05:55:44;;;;;;;6.22;4.30;;;;;;;5.04;100.00;153800.72;4945520;29;20060;-79
2022/09/22 05:58:10;;;;;;;8.45;4.47;;;;;;;5.22;100.00;153846.75;4927866;28;20066;-80
2022/09/22 06:00:36;;;;;;;5.65;4.20;;;;;;;5.33;100.00;153873.63;4963750;28;20031;-79
2022/09/22 06:03:03;;;;;;;6.15;4.35;;;;;;;5.45;100.00;153904.28;4960172;28;20050;-79
2022/09/22 06:05:28;;;;;;;7.75;4.60;;;;;;;5.52;100.00;153919.63;4951301;28;20030;-80
2022/09/22 06:08:00;;;;;;;5.85;3.75;;;;;;;5.66;100.00;153955.44;4941330;28;20035;-80
2022/09/22 06:10:26;;;;;;;8.02;4.00;;;;;;;5.76;100.00;153979.72;4938647;28;20035;-80
2022/09/22 06:12:57;;;;;;;5.70;4.30;;;;;;;5.82;100.00;153995.06;4958876;28;20065;-80
2022/09/22 06:15:23;;;;;;;6.25;4.80;;;;;;;5.92;100.00;154019.41;4951914;28;20047;-80
2022/09/22 06:17:51;;;;;;;8.18;4.90;;;;;;;6.01;100.00;154043.75;4946188;29;20027;-80
2022/09/22 06:20:16;;;;;;;5.35;4.20;;;;;;;6.16;100.00;154080.84;4926859;28;20062;-80
2022/09/22 06:22:43;;;;;;;6.43;4.40;;;;;;;6.29;100.00;154111.50;4940805;28;20417;-80
2022/09/22 06:25:10;;;;;;;6.05;4.57;;;;;;;6.37;100.00;154133.28;4960456;28;20039;-80
2022/09/22 06:27:36;;;;;;;5.32;4.07;;;;;;;6.48;100.00;154160.16;4940785;28;20046;-80
2022/09/22 06:30:03;;;;;;;7.97;4.55;;;;;;;6.65;100.00;154201.06;4957329;28;20051;-78
2022/09/22 06:32:28;;;;;;;4.35;3.83;;;;;;;6.77;100.00;154233.06;4954805;28;20095;-79
2022/09/22 06:34:54;;;;;;;6.03;3.75;;;;;;;7.00;100.00;154290.66;4930418;28;20035;-80
2022/09/22 06:37:21;;;;;;;6.90;3.60;;;;;;;7.04;100.00;154298.34;4936626;28;20035;-79
2022/09/22 06:39:46;;;;;;;5.30;2.75;;;;;;;7.34;100.00;154373.88;4938247;29;20502;-81
2022/09/22 06:42:15;;;;;;;4.80;3.15;;;;;;;7.40;100.00;154389.22;4919833;28;20039;-80
2022/09/22 06:44:43;;;;;;;3.63;2.90;;;;;;;7.57;100.00;154432.78;4943035;28;20034;-81
2022/09/22 06:47:11;;;;;;;4.03;2.83;;;;;;;7.66;100.00;154454.53;4960840;28;20043;-81
2022/09/22 06:49:37;;;;;;;4.68;2.95;;;;;;;7.79;100.00;154487.81;4953622;28;20061;-79
2022/09/22 06:52:02;;;;;;;5.75;2.88;;;;;;;7.84;100.00;154499.38;4959691;28;20067;-80
2022/09/22 06:54:28;;;;;;;4.68;2.80;;;;;;;7.88;100.00;154508.34;4951374;28;20043;-80
2022/09/22 06:56:54;;;;;;;6.57;2.80;;;;;;;8.00;100.00;154539.06;4929667;28;20081;-80
2022/09/22 06:59:20;;;;;;;6.43;2.60;;;;;;;8.11;100.00;154567.22;4971797;28;20038;-80
2022/09/22 07:01:45;;;;;;;3.47;2.80;;;;;;;8.18;100.00;154583.91;4918811;29;20497;-82
2022/09/22 07:04:12;;;;;;;6.00;2.97;;;;;;;8.35;100.00;154627.44;4954798;28;20422;-80
2022/09/22 07:06:42;;;;;;;4.15;3.13;;;;;;;8.43;100.00;154646.72;4957213;28;20037;-80
2022/09/22 07:09:08;;;;;;;5.47;3.00;;;;;;;8.39;100.00;154636.41;4955270;28;20039;-81
2022/09/22 07:11:33;;;;;;;5.63;3.05;;;;;;;8.35;100.00;154626.19;4942953;28;20828;-79
2022/09/22 07:13:59;;;;;;;5.85;2.80;;;;;;;8.48;100.00;154658.28;4954363;28;20035;-79
2022/09/22 07:16:25;;;;;;;5.90;2.90;;;;;;;8.52;100.00;154669.78;4936222;28;20070;-81
2022/09/22 07:18:54;;;;;;;5.20;3.22;;;;;;;8.62;100.00;154694.09;4938700;29;20051;-79
2022/09/22 07:21:22;;;;;;;6.05;3.50;;;;;;;8.72;100.00;154718.44;4946782;28;20099;-80
2022/09/22 07:23:50;;;;;;;7.90;3.45;;;;;;;8.87;100.00;154756.94;4937999;29;20032;-80
2022/09/22 07:26:22;;;;;;;6.72;3.42;;;;;;;8.96;100.00;154778.69;4937214;28;20043;-79
2022/09/22 07:28:51;;;;;;;7.25;3.20;;;;;;;9.08;100.00;154808.16;4960668;28;20039;-80
2022/09/22 07:31:17;;;;;;;5.93;3.15;;;;;;;9.19;100.00;154836.34;4946969;28;20035;-81
2022/09/22 07:33:44;;;;;;;6.13;3.40;;;;;;;9.20;100.00;154838.94;4961552;28;20037;-82
2022/09/22 07:36:27;;;;;;;7.40;3.55;;;;;;;9.42;100.00;154894.06;4937786;29;20043;-81
2022/09/22 07:38:54;;;;;;;7.68;3.20;;;;;;;9.52;100.00;154918.41;4938511;28;20039;-80
2022/09/22 07:41:23;;;;;;;6.88;2.83;;;;;;;9.71;100.00;154967.13;4928104;28;20518;-82
2022/09/22 07:43:52;;;;;;;3.75;2.80;;;;;;;9.87;100.00;155005.59;4946219;29;20035;-82
2022/09/22 07:46:18;;;;;;;7.85;3.20;;;;;;;9.92;100.00;155018.44;4921416;28;20441;-81
2022/09/22 07:48:47;;;;;;;10.68;3.17;;;;;;;9.97;100.00;155031.25;4931111;29;20122;-82
2022/09/22 07:51:21;;;;;;;7.13;3.35;;;;;;;10.15;100.00;155076.13;4939119;28;20067;-80
2022/09/22 07:53:50;;;;;;;4.32;2.72;;;;;;;10.25;100.00;155101.81;4954558;28;20298;-81
2022/09/22 07:56:19;;;;;;;5.88;3.08;;;;;;;10.43;100.00;155145.47;4944470;28;20035;-81
2022/09/22 07:58:53;;;;;;;5.03;3.10;;;;;;;10.47;100.00;155157.03;4948534;28;20089;-81
2022/09/22 08:01:20;;;;;;;9.60;2.85;;;;;;;10.56;100.00;155178.81;4954100;28;20063;-81
2022/09/22 08:03:46;;;;;;;6.47;3.60;;;;;;;10.67;100.00;155205.75;4945074;29;20031;-81
2022/09/22 08:06:14;;;;;;;5.80;3.40;;;;;;;10.82;100.00;155244.25;4941718;28;20044;-81
2022/09/22 08:08:51;;;;;;;5.85;3.30;;;;;;;10.85;100.00;155251.97;4947371;29;20031;-80
2022/09/22 08:11:18;;;;;;;6.63;3.00;;;;;;;11.06;100.00;155303.28;4922530;28;20043;-82
2022/09/22 08:13:54;;;;;;;10.15;3.53;;;;;;;11.22;100.00;155343.06;4948617;28;20039;-81
2022/09/22 08:16:21;;;;;;;5.40;3.30;;;;;;;11.38;100.00;155382.88;4925936;28;20535;-81
2022/09/22 08:19:01;;;;;;;5.93;3.08;;;;;;;11.49;100.00;155412.38;4919541;29;20032;-81
2022/09/22 08:21:34;;;;;;;10.95;3.28;;;;;;;11.69;100.00;155462.44;4958972;28;20039;-83
2022/09/22 08:24:01;;;;;;;7.35;3.38;;;;;;;11.79;100.00;155486.84;4931895;28;20523;-82
2022/09/22 08:26:27;;;;;;;7.93;3.30;;;;;;;11.84;100.00;155499.66;4944537;29;20043;-82
2022/09/22 08:28:54;;;;;;;6.18;3.13;;;;;;;11.79;100.00;155485.53;4922222;29;20043;-81
2022/09/22 08:31:21;;;;;;;6.05;2.83;;;;;;;11.95;100.00;155526.69;4955662;28;20061;-82
2022/09/22 08:33:49;;;;;;;6.78;3.05;;;;;;;12.10;100.00;155563.94;4958522;28;20046;-84
2022/09/22 08:36:15;;;;;;;6.57;3.15;;;;;;;12.09;100.00;155561.34;4946177;28;20043;-81
2022/09/22 08:38:41;;;;;;;6.07;2.90;;;;;;;12.20;100.00;155588.31;4940514;28;20405;-82
2022/09/22 08:41:18;;;;;;;5.75;2.88;;;;;;;12.46;100.00;155653.84;4929494;29;20027;-84
2022/09/22 08:44:10;;;;;;;7.32;2.90;;;;;;;12.56;100.00;155678.22;4955728;28;20377;-81
2022/09/22 08:46:40;;;;;;;6.28;2.55;;;;;;;12.58;100.00;155683.38;4962371;28;20027;-81
2022/09/22 08:52:39;;;;;;;7.32;2.85;;;;;;;12.73;100.00;155720.63;4943008;29;20101;-82
2022/09/22 08:55:20;;;;;;;6.00;2.50;;;;;;;12.77;100.00;155730.88;4956237;28;20039;-81
2022/09/22 08:58:07;;;;;;;5.85;2.80;;;;;;;12.72;100.00;155718.09;4949113;28;20129;-82
2022/09/22 09:00:42;;;;;;;5.43;2.60;;;;;;;12.84;100.00;155750.16;4945053;28;20022;-82
2022/09/22 09:03:49;;;;;;;7.32;2.90;;;;;;;12.81;100.00;155741.22;4930329;29;20474;-81
2022/09/22 09:06:37;;;;;;;8.55;3.13;;;;;;;13.05;100.00;155801.56;4942293;28;20050;-82
2022/09/22 09:09:18;;;;;;;8.38;2.92;;;;;;;13.23;100.00;155847.81;4927707;29;20066;-81
2022/09/22 09:12:08;;;;;;;5.13;2.88;;;;;;;13.36;100.00;155880.00;4940960;28;20035;-82
2022/09/22 09:14:53;;;;;;;6.18;3.03;;;;;;;13.33;100.00;155871.00;4936369;28;20027;-80
2022/09/22 09:17:32;;;;;;;5.38;2.75;;;;;;;13.45;100.00;155901.88;4943071;28;20065;-81
2022/09/22 09:20:12;;;;;;;7.10;2.47;;;;;;;13.60;100.00;155939.16;4947871;28;20516;-82
2022/09/22 09:22:42;;;;;;;4.97;2.50;;;;;;;13.80;100.00;155989.25;4947584;29;20389;-83
2022/09/22 09:25:21;;;;;;;6.03;2.80;;;;;;;13.87;100.00;156007.25;4942006;29;20046;-81
2022/09/22 09:27:54;;;;;;;8.00;2.78;;;;;;;13.85;100.00;156002.13;4939262;28;20046;-82
2022/09/22 09:30:20;;;;;;;;;;;;;;;13.91;100.00;156016.25;4932528;28;20034;-81
2022/09/22 09:32:52;;;;;;;4.90;2.28;;;;;;;13.99;99.72;156038.13;4923706;29;19915;-82
2022/09/22 09:35:25;;;;;;;8.17;2.53;;;;;;;13.98;99.21;156035.56;4955719;28;20078;-81
2022/09/22 09:37:56;;;;;;;5.38;2.30;;;;;;;13.99;97.33;156038.13;4923448;29;20126;-81
2022/09/22 09:40:22;;;;;;;6.83;2.77;;;;;;;14.17;98.47;156081.84;4956909;28;20683;-82
2022/09/22 09:42:57;;;;;;;9.63;2.42;;;;;;;14.28;98.83;156108.81;4940729;28;20345;-82
2022/09/22 09:45:30;;;;;;;4.75;2.53;;;;;;;14.30;94.17;156115.28;4948096;28;20048;-80
2022/09/22 09:48:14;;;;;;;7.13;1.90;;;;;;;14.31;95.33;156116.53;4955897;28;20040;-81
2022/09/22 09:50:40;;;;;;;5.07;2.00;;;;;;;14.35;96.55;156126.81;4967290;28;20038;-81
2022/09/22 09:53:26;;;;;;;6.53;2.13;;;;;;;14.51;97.38;156166.72;4953681;28;20085;-81
2022/09/22 09:55:52;;;;;;;3.95;1.40;;;;;;;14.45;95.66;156152.56;4943906;29;20042;-80
2022/09/22 10:01:04;;;;;;;5.55;1.85;;;;;;;14.79;95.40;156238.78;4947188;29;20035;-81
2022/09/22 10:03:39;;;;;;;8.27;1.73;;;;;;;15.06;93.45;156304.38;4956988;28;20090;-81
2022/09/22 10:06:09;;;;;;;4.60;1.55;;;;;;;15.28;90.36;156359.72;4940600;29;20064;-81
2022/09/22 10:08:46;;;;;;;6.88;1.63;;;;;;;15.42;84.07;156394.44;4946390;28;20055;-80
2022/09/22 10:11:14;;;;;;;4.95;1.40;;;;;;;15.52;84.94;156421.50;4941038;28;20047;-80
2022/09/22 10:13:41;;;;;;;5.18;1.20;;;;;;;15.21;84.92;156341.72;4957554;28;20446;-84
2022/09/22 10:16:25;;;;;;;3.40;1.40;;;;;;;15.44;85.58;156399.59;4955937;28;20063;-81
2022/09/22 10:18:59;;;;;;;3.50;1.33;;;;;;;15.61;84.23;156443.34;4954630;28;20043;-81
2022/09/22 10:21:25;;;;;;;3.90;1.10;;;;;;;15.60;82.14;156440.78;4933785;28;20078;-80
2022/09/22 10:23:53;;;;;;;8.05;1.20;;;;;;;15.86;81.68;156505.16;4973180;28;20473;-79
2022/09/22 10:26:29;;;;;;;7.10;1.10;;;;;;;15.92;78.69;156520.63;4952608;28;20043;-81
2022/09/22 10:29:17;;;;;;;6.00;1.02;;;;;;;16.03;76.91;156548.94;4922123;29;20042;-79
2022/09/22 10:31:57;;;;;;;2.78;1.02;;;;;;;16.13;77.13;156574.69;4945228;28;20046;-78
2022/09/22 10:34:33;;;;;;;4.15;1.20;;;;;;;16.28;77.51;156610.75;4950360;28;20043;-79
2022/09/22 10:37:00;;;;;;;4.13;1.17;;;;;;;16.40;77.58;156640.34;4932424;28;20054;-81
2022/09/22 10:39:43;;;;;;;5.40;1.23;;;;;;;16.46;74.86;156655.78;4937793;28;20383;-80
2022/09/22 10:42:26;;;;;;;4.45;1.13;;;;;;;16.51;73.64;156668.66;4922880;29;20058;-81
2022/09/22 10:44:55;;;;;;;2.05;1.10;;;;;;;16.55;73.53;156678.94;4938989;29;20063;-80
2022/09/22 10:47:38;;;;;;;5.10;1.35;;;;;;;16.64;74.13;156702.13;4943638;28;20078;-78
2022/09/22 10:50:30;;;;;;;5.57;1.00;;;;;;;16.71;73.35;156718.91;4941213;29;20474;-80
2022/09/22 10:53:31;;;;;;;5.10;1.20;;;;;;;16.81;65.07;156744.63;4958199;28;20513;-82
2022/09/22 10:56:14;;;;;;;4.05;0.70;;;;;;;16.84;63.65;156752.44;4901768;29;20078;-81
2022/09/22 10:58:43;;;;;;;2.97;0.80;;;;;;;17.00;67.08;156791.06;4960280;28;20485;-80
2022/09/22 11:01:33;;;;;;;5.32;0.80;;;;;;;17.11;66.14;156820.66;4935059;28;20053;-80
2022/09/22 11:04:17;;;;;;;4.95;1.30;;;;;;;17.05;65.61;156805.22;4943400;28;20125;-81
2022/09/22 11:13:56;;;;;;;6.00;0.90;;;;;;;17.17;67.71;156834.84;4957743;28;20039;-82
2022/09/22 11:16:45;;;;;;;5.60;1.00;;;;;;;17.12;66.31;156823.25;4955118;28;20842;-81
2022/09/22 11:19:24;;;;;;;3.35;1.10;;;;;;;17.13;65.40;156825.81;4940283;28;20047;-80
2022/09/22 11:22:13;;;;;;;6.90;1.20;;;;;;;17.27;67.17;156860.63;4936372;28;20041;-82
2022/09/22 11:24:48;;;;;;;5.28;1.10;;;;;;;17.53;66.27;156925.00;4928205;29;20043;-80
2022/09/22 11:27:36;;;;;;;4.22;1.05;;;;;;;17.50;68.19;156917.31;4955698;28;20101;-80
2022/09/22 11:30:15;;;;;;;8.13;1.70;;;;;;;17.87;65.34;157010.09;4938668;28;20053;-79
2022/09/22 11:33:01;;;;;;;3.75;1.00;;;;;;;17.96;63.17;157033.28;4944677;29;20094;-80
2022/09/22 11:35:35;;;;;;;4.03;0.82;;;;;;;17.88;63.27;157013.97;4923169;28;20047;-81
2022/09/22 11:38:51;;;;;;;5.03;1.20;;;;;;;17.83;63.59;157001.00;4918117;29;20055;-81
2022/09/22 11:41:25;;;;;;;5.95;1.10;;;;;;;17.76;65.37;156982.97;4943850;28;20032;-82
2022/09/22 11:44:29;;;;;;;2.72;0.80;;;;;;;17.78;64.82;156986.84;4945518;28;20035;-81
2022/09/22 11:47:16;;;;;;;6.53;0.90;;;;;;;17.86;63.89;157007.53;4925311;28;20085;-81
2022/09/22 11:50:03;;;;;;;4.07;0.75;;;;;;;17.86;63.75;157008.81;4918826;29;20425;-79
2022/09/22 11:52:42;;;;;;;4.32;1.02;;;;;;;17.93;65.39;157025.53;4940848;28;20507;-81
2022/09/22 11:55:11;;;;;;;6.03;1.42;;;;;;;18.05;64.69;157055.22;4957633;28;20043;-78
2022/09/22 11:57:41;;;;;;;3.90;0.90;;;;;;;18.18;64.93;157087.44;4920735;29;20042;-79